sensor_id;sensor_type;location;lat;lon;timestamp;temperature;humidity
54429;DHT22;40337;52.978;6.310;2023-08-07T00:00:23;15.30;99.90
54429;DHT22;40337;52.978;6.310;2023-08-07T00:02:49;15.30;99.90
54429;DHT22;40337;52.978;6.310;2023-08-07T00:05:15;15.30;99.90
54429;DHT22;40337;52.978;6.310;2023-08-07T00:07:42;15.30;99.90
54429;DHT22;40337;52.978;6.310;2023-08-07T00:10:08;15.30;99.90
54429;DHT22;40337;52.978;6.310;2023-08-07T00:12:34;15.30;99.90
54429;DHT22;40337;52.978;6.310;2023-08-07T00:15:00;15.30;99.90
54429;DHT22;40337;52.978;6.310;2023-08-07T00:17:26;15.30;99.90
54429;DHT22;40337;52.978;6.310;2023-08-07T00:19:51;15.30;99.90
54429;DHT22;40337;52.978;6.310;2023-08-07T00:22:17;15.30;99.90
54429;DHT22;40337;52.978;6.310;2023-08-07T00:24:43;15.30;99.90
54429;DHT22;40337;52.978;6.310;2023-08-07T00:27:08;15.30;99.90
54429;DHT22;40337;52.978;6.310;2023-08-07T00:29:36;15.20;99.90
54429;DHT22;40337;52.978;6.310;2023-08-07T00:32:02;15.20;99.90
54429;DHT22;40337;52.978;6.310;2023-08-07T00:34:28;15.20;99.90
54429;DHT22;40337;52.978;6.310;2023-08-07T00:36:53;15.20;99.90
54429;DHT22;40337;52.978;6.310;2023-08-07T00:39:19;15.20;99.90
54429;DHT22;40337;52.978;6.310;2023-08-07T00:41:44;15.10;99.90
54429;DHT22;40337;52.978;6.310;2023-08-07T00:44:10;15.20;99.90
54429;DHT22;40337;52.978;6.310;2023-08-07T00:46:35;15.20;99.90
54429;DHT22;40337;52.978;6.310;2023-08-07T00:49:02;15.20;99.90
54429;DHT22;40337;52.978;6.310;2023-08-07T00:51:29;15.20;99.90
54429;DHT22;40337;52.978;6.310;2023-08-07T00:53:54;15.20;99.90
54429;DHT22;40337;52.978;6.310;2023-08-07T00:56:20;15.10;99.90
54429;DHT22;40337;52.978;6.310;2023-08-07T00:58:47;15.10;99.90
54429;DHT22;40337;52.978;6.310;2023-08-07T01:01:12;15.10;99.90
54429;DHT22;40337;52.978;6.310;2023-08-07T01:03:38;15.00;99.90
54429;DHT22;40337;52.978;6.310;2023-08-07T01:06:03;15.00;99.90
54429;DHT22;40337;52.978;6.310;2023-08-07T01:08:30;15.00;99.90
54429;DHT22;40337;52.978;6.310;2023-08-07T01:14:02;15.00;99.90
54429;DHT22;40337;52.978;6.310;2023-08-07T01:16:36;15.00;99.90
54429;DHT22;40337;52.978;6.310;2023-08-07T01:19:03;15.00;99.90
54429;DHT22;40337;52.978;6.310;2023-08-07T01:21:30;15.00;99.90
54429;DHT22;40337;52.978;6.310;2023-08-07T01:23:57;15.00;99.90
54429;DHT22;40337;52.978;6.310;2023-08-07T01:26:22;15.00;99.90
54429;DHT22;40337;52.978;6.310;2023-08-07T01:29:02;15.00;99.90
54429;DHT22;40337;52.978;6.310;2023-08-07T01:31:30;15.00;99.90
54429;DHT22;40337;52.978;6.310;2023-08-07T01:34:04;14.90;99.90
54429;DHT22;40337;52.978;6.310;2023-08-07T01:36:30;14.90;99.90
54429;DHT22;40337;52.978;6.310;2023-08-07T01:38:57;14.90;99.90
54429;DHT22;40337;52.978;6.310;2023-08-07T01:41:25;14.80;99.90
54429;DHT22;40337;52.978;6.310;2023-08-07T01:43:51;14.80;99.90
54429;DHT22;40337;52.978;6.310;2023-08-07T01:46:18;14.70;99.90
54429;DHT22;40337;52.978;6.310;2023-08-07T01:48:43;14.70;99.90
54429;DHT22;40337;52.978;6.310;2023-08-07T01:51:09;14.70;99.90
54429;DHT22;40337;52.978;6.310;2023-08-07T01:53:34;14.60;99.90
54429;DHT22;40337;52.978;6.310;2023-08-07T01:56:00;14.60;99.90
54429;DHT22;40337;52.978;6.310;2023-08-07T01:58:25;14.50;99.90
54429;DHT22;40337;52.978;6.310;2023-08-07T02:00:51;14.50;99.90
54429;DHT22;40337;52.978;6.310;2023-08-07T02:03:18;14.50;99.90
54429;DHT22;40337;52.978;6.310;2023-08-07T02:05:47;14.40;99.90
54429;DHT22;40337;52.978;6.310;2023-08-07T02:08:13;14.40;99.90
54429;DHT22;40337;52.978;6.310;2023-08-07T02:10:38;14.40;99.90
54429;DHT22;40337;52.978;6.310;2023-08-07T02:13:04;14.30;99.90
54429;DHT22;40337;52.978;6.310;2023-08-07T02:15:29;14.30;99.90
54429;DHT22;40337;52.978;6.310;2023-08-07T02:17:55;14.30;99.90
54429;DHT22;40337;52.978;6.310;2023-08-07T02:20:21;14.20;99.90
54429;DHT22;40337;52.978;6.310;2023-08-07T02:22:46;14.20;99.90
54429;DHT22;40337;52.978;6.310;2023-08-07T02:25:12;14.20;99.90
54429;DHT22;40337;52.978;6.310;2023-08-07T02:27:38;14.20;99.90
54429;DHT22;40337;52.978;6.310;2023-08-07T02:30:04;14.20;99.90
54429;DHT22;40337;52.978;6.310;2023-08-07T02:32:30;14.20;99.90
54429;DHT22;40337;52.978;6.310;2023-08-07T02:34:56;14.10;99.90
54429;DHT22;40337;52.978;6.310;2023-08-07T02:37:21;14.10;99.90
54429;DHT22;40337;52.978;6.310;2023-08-07T02:39:47;14.10;99.90
54429;DHT22;40337;52.978;6.310;2023-08-07T02:42:13;14.10;99.90
54429;DHT22;40337;52.978;6.310;2023-08-07T02:44:38;14.10;99.90
54429;DHT22;40337;52.978;6.310;2023-08-07T02:47:04;14.10;99.90
54429;DHT22;40337;52.978;6.310;2023-08-07T02:49:29;14.10;99.90
54429;DHT22;40337;52.978;6.310;2023-08-07T02:51:55;14.10;99.90
54429;DHT22;40337;52.978;6.310;2023-08-07T02:54:20;14.10;99.90
54429;DHT22;40337;52.978;6.310;2023-08-07T02:56:46;14.10;99.90
54429;DHT22;40337;52.978;6.310;2023-08-07T02:59:14;14.10;99.90
54429;DHT22;40337;52.978;6.310;2023-08-07T03:01:39;14.10;99.90
54429;DHT22;40337;52.978;6.310;2023-08-07T03:04:05;14.10;99.90
54429;DHT22;40337;52.978;6.310;2023-08-07T03:06:30;14.10;99.90
54429;DHT22;40337;52.978;6.310;2023-08-07T03:08:56;14.00;99.90
54429;DHT22;40337;52.978;6.310;2023-08-07T03:11:21;14.00;99.90
54429;DHT22;40337;52.978;6.310;2023-08-07T03:13:47;14.00;99.90
54429;DHT22;40337;52.978;6.310;2023-08-07T03:16:14;14.00;99.90
54429;DHT22;40337;52.978;6.310;2023-08-07T03:18:40;14.00;99.90
54429;DHT22;40337;52.978;6.310;2023-08-07T03:21:05;14.10;99.90
54429;DHT22;40337;52.978;6.310;2023-08-07T03:23:31;14.20;99.90
54429;DHT22;40337;52.978;6.310;2023-08-07T03:26:07;14.20;99.90
54429;DHT22;40337;52.978;6.310;2023-08-07T03:28:33;14.30;99.90
54429;DHT22;40337;52.978;6.310;2023-08-07T03:30:59;14.30;99.90
54429;DHT22;40337;52.978;6.310;2023-08-07T03:33:25;14.40;99.90
54429;DHT22;40337;52.978;6.310;2023-08-07T03:35:50;14.40;99.90
54429;DHT22;40337;52.978;6.310;2023-08-07T03:38:16;14.40;99.90
54429;DHT22;40337;52.978;6.310;2023-08-07T03:40:42;14.40;99.90
54429;DHT22;40337;52.978;6.310;2023-08-07T03:43:07;14.40;99.90
54429;DHT22;40337;52.978;6.310;2023-08-07T03:45:33;14.40;99.90
54429;DHT22;40337;52.978;6.310;2023-08-07T03:47:58;14.50;99.90
54429;DHT22;40337;52.978;6.310;2023-08-07T03:50:24;14.50;99.90
54429;DHT22;40337;52.978;6.310;2023-08-07T03:52:49;14.50;99.90
54429;DHT22;40337;52.978;6.310;2023-08-07T03:55:15;14.60;99.90
54429;DHT22;40337;52.978;6.310;2023-08-07T03:57:40;14.60;99.90
54429;DHT22;40337;52.978;6.310;2023-08-07T04:00:07;14.60;99.90
54429;DHT22;40337;52.978;6.310;2023-08-07T04:02:32;14.60;99.90
54429;DHT22;40337;52.978;6.310;2023-08-07T04:04:58;14.70;99.90
54429;DHT22;40337;52.978;6.310;2023-08-07T04:07:23;14.70;99.90
54429;DHT22;40337;52.978;6.310;2023-08-07T04:09:49;14.70;99.90
54429;DHT22;40337;52.978;6.310;2023-08-07T04:12:15;14.70;99.90
54429;DHT22;40337;52.978;6.310;2023-08-07T04:14:40;14.80;99.90
54429;DHT22;40337;52.978;6.310;2023-08-07T04:17:06;14.80;99.90
54429;DHT22;40337;52.978;6.310;2023-08-07T04:19:31;14.80;99.90
54429;DHT22;40337;52.978;6.310;2023-08-07T04:21:57;14.80;99.90
54429;DHT22;40337;52.978;6.310;2023-08-07T04:24:23;14.80;99.90
54429;DHT22;40337;52.978;6.310;2023-08-07T04:26:48;14.80;99.90
54429;DHT22;40337;52.978;6.310;2023-08-07T04:29:14;14.80;99.90
54429;DHT22;40337;52.978;6.310;2023-08-07T04:31:40;14.80;99.90
54429;DHT22;40337;52.978;6.310;2023-08-07T04:34:05;14.80;99.90
54429;DHT22;40337;52.978;6.310;2023-08-07T04:36:31;14.80;99.90
54429;DHT22;40337;52.978;6.310;2023-08-07T04:38:56;14.80;99.90
54429;DHT22;40337;52.978;6.310;2023-08-07T04:41:22;14.80;99.90
54429;DHT22;40337;52.978;6.310;2023-08-07T04:43:48;14.80;99.90
54429;DHT22;40337;52.978;6.310;2023-08-07T04:46:14;14.80;99.90
54429;DHT22;40337;52.978;6.310;2023-08-07T04:48:40;14.80;99.90
54429;DHT22;40337;52.978;6.310;2023-08-07T04:51:06;14.70;99.90
54429;DHT22;40337;52.978;6.310;2023-08-07T04:53:31;14.70;99.90
54429;DHT22;40337;52.978;6.310;2023-08-07T04:55:58;14.70;99.90
54429;DHT22;40337;52.978;6.310;2023-08-07T04:58:24;14.60;99.90
54429;DHT22;40337;52.978;6.310;2023-08-07T05:00:57;14.60;99.90
54429;DHT22;40337;52.978;6.310;2023-08-07T05:03:23;14.60;99.90
54429;DHT22;40337;52.978;6.310;2023-08-07T05:05:49;14.60;99.90
54429;DHT22;40337;52.978;6.310;2023-08-07T05:08:14;14.60;99.90
54429;DHT22;40337;52.978;6.310;2023-08-07T05:10:40;14.60;99.90
54429;DHT22;40337;52.978;6.310;2023-08-07T05:13:05;14.60;99.90
54429;DHT22;40337;52.978;6.310;2023-08-07T05:15:31;14.60;99.90
54429;DHT22;40337;52.978;6.310;2023-08-07T05:17:57;14.60;99.90
54429;DHT22;40337;52.978;6.310;2023-08-07T05:20:23;14.60;99.90
54429;DHT22;40337;52.978;6.310;2023-08-07T05:22:49;14.60;99.90
54429;DHT22;40337;52.978;6.310;2023-08-07T05:25:15;14.60;99.90
54429;DHT22;40337;52.978;6.310;2023-08-07T05:27:50;14.60;99.90
54429;DHT22;40337;52.978;6.310;2023-08-07T05:30:15;14.70;99.90
54429;DHT22;40337;52.978;6.310;2023-08-07T05:32:41;14.70;99.90
54429;DHT22;40337;52.978;6.310;2023-08-07T05:35:07;14.80;99.90
54429;DHT22;40337;52.978;6.310;2023-08-07T05:37:34;14.80;99.90
54429;DHT22;40337;52.978;6.310;2023-08-07T05:40:00;14.80;99.90
54429;DHT22;40337;52.978;6.310;2023-08-07T05:42:25;14.80;99.90
54429;DHT22;40337;52.978;6.310;2023-08-07T05:44:51;14.90;99.90
54429;DHT22;40337;52.978;6.310;2023-08-07T05:47:16;14.90;99.90
54429;DHT22;40337;52.978;6.310;2023-08-07T05:49:42;14.90;99.90
54429;DHT22;40337;52.978;6.310;2023-08-07T05:52:08;15.00;99.90
54429;DHT22;40337;52.978;6.310;2023-08-07T05:54:33;15.10;99.90
54429;DHT22;40337;52.978;6.310;2023-08-07T05:56:59;15.10;99.90
54429;DHT22;40337;52.978;6.310;2023-08-07T05:59:24;15.10;99.90
54429;DHT22;40337;52.978;6.310;2023-08-07T06:01:50;15.20;99.90
54429;DHT22;40337;52.978;6.310;2023-08-07T06:04:16;15.30;99.90
54429;DHT22;40337;52.978;6.310;2023-08-07T06:06:42;15.30;99.90
54429;DHT22;40337;52.978;6.310;2023-08-07T06:09:08;15.20;99.90
54429;DHT22;40337;52.978;6.310;2023-08-07T06:11:34;15.20;99.90
54429;DHT22;40337;52.978;6.310;2023-08-07T06:13:59;15.10;99.90
54429;DHT22;40337;52.978;6.310;2023-08-07T06:16:25;15.00;99.90
54429;DHT22;40337;52.978;6.310;2023-08-07T06:18:51;14.80;99.90
54429;DHT22;40337;52.978;6.310;2023-08-07T06:21:16;14.80;99.90
54429;DHT22;40337;52.978;6.310;2023-08-07T06:23:42;14.70;99.90
54429;DHT22;40337;52.978;6.310;2023-08-07T06:26:08;14.60;99.90
54429;DHT22;40337;52.978;6.310;2023-08-07T06:28:34;14.60;99.90
54429;DHT22;40337;52.978;6.310;2023-08-07T06:31:07;14.70;99.90
54429;DHT22;40337;52.978;6.310;2023-08-07T06:33:33;14.60;99.90
54429;DHT22;40337;52.978;6.310;2023-08-07T06:35:59;14.70;99.90
54429;DHT22;40337;52.978;6.310;2023-08-07T06:38:25;14.70;99.90
54429;DHT22;40337;52.978;6.310;2023-08-07T06:40:51;14.80;99.90
54429;DHT22;40337;52.978;6.310;2023-08-07T06:43:16;14.80;99.90
54429;DHT22;40337;52.978;6.310;2023-08-07T06:45:42;14.80;99.90
54429;DHT22;40337;52.978;6.310;2023-08-07T06:48:08;14.80;99.90
54429;DHT22;40337;52.978;6.310;2023-08-07T06:50:33;14.90;99.90
54429;DHT22;40337;52.978;6.310;2023-08-07T06:52:59;15.00;99.90
54429;DHT22;40337;52.978;6.310;2023-08-07T06:55:25;15.10;99.90
54429;DHT22;40337;52.978;6.310;2023-08-07T06:57:50;15.30;99.90
54429;DHT22;40337;52.978;6.310;2023-08-07T07:00:16;15.30;99.90
54429;DHT22;40337;52.978;6.310;2023-08-07T07:02:42;15.40;99.90
54429;DHT22;40337;52.978;6.310;2023-08-07T07:05:07;15.50;99.90
54429;DHT22;40337;52.978;6.310;2023-08-07T07:07:33;15.70;99.90
54429;DHT22;40337;52.978;6.310;2023-08-07T07:09:59;15.70;99.90
54429;DHT22;40337;52.978;6.310;2023-08-07T07:12:26;15.60;99.90
54429;DHT22;40337;52.978;6.310;2023-08-07T07:14:52;15.30;99.90
54429;DHT22;40337;52.978;6.310;2023-08-07T07:17:18;15.20;99.90
54429;DHT22;40337;52.978;6.310;2023-08-07T07:19:44;15.10;99.90
54429;DHT22;40337;52.978;6.310;2023-08-07T07:22:10;15.10;99.90
54429;DHT22;40337;52.978;6.310;2023-08-07T07:24:35;15.10;99.90
54429;DHT22;40337;52.978;6.310;2023-08-07T07:27:01;15.20;99.90
54429;DHT22;40337;52.978;6.310;2023-08-07T07:29:27;15.20;99.90
54429;DHT22;40337;52.978;6.310;2023-08-07T07:31:52;15.30;99.90
54429;DHT22;40337;52.978;6.310;2023-08-07T07:34:20;15.30;99.90
54429;DHT22;40337;52.978;6.310;2023-08-07T07:36:46;15.20;99.90
54429;DHT22;40337;52.978;6.310;2023-08-07T07:39:11;15.10;99.90
54429;DHT22;40337;52.978;6.310;2023-08-07T07:41:37;15.00;99.90
54429;DHT22;40337;52.978;6.310;2023-08-07T07:44:03;14.90;99.90
54429;DHT22;40337;52.978;6.310;2023-08-07T07:46:28;15.00;99.90
54429;DHT22;40337;52.978;6.310;2023-08-07T07:48:54;15.00;99.90
54429;DHT22;40337;52.978;6.310;2023-08-07T07:51:21;15.00;99.90
54429;DHT22;40337;52.978;6.310;2023-08-07T07:53:47;15.10;99.90
54429;DHT22;40337;52.978;6.310;2023-08-07T07:56:12;15.20;99.90
54429;DHT22;40337;52.978;6.310;2023-08-07T07:58:38;16.00;99.90
54429;DHT22;40337;52.978;6.310;2023-08-07T08:01:03;16.80;99.90
54429;DHT22;40337;52.978;6.310;2023-08-07T08:03:29;17.50;99.90
54429;DHT22;40337;52.978;6.310;2023-08-07T08:05:54;18.20;99.90
54429;DHT22;40337;52.978;6.310;2023-08-07T08:08:20;18.20;99.90
54429;DHT22;40337;52.978;6.310;2023-08-07T08:10:46;17.90;99.90
54429;DHT22;40337;52.978;6.310;2023-08-07T08:13:16;17.30;99.90
54429;DHT22;40337;52.978;6.310;2023-08-07T08:15:42;16.70;99.90
54429;DHT22;40337;52.978;6.310;2023-08-07T08:18:08;16.20;99.90
54429;DHT22;40337;52.978;6.310;2023-08-07T08:20:33;16.00;99.90
54429;DHT22;40337;52.978;6.310;2023-08-07T08:22:59;15.80;99.90
54429;DHT22;40337;52.978;6.310;2023-08-07T08:25:25;15.70;99.90
54429;DHT22;40337;52.978;6.310;2023-08-07T08:27:50;15.80;99.90
54429;DHT22;40337;52.978;6.310;2023-08-07T08:30:16;15.90;99.90
54429;DHT22;40337;52.978;6.310;2023-08-07T08:32:43;15.90;99.90
54429;DHT22;40337;52.978;6.310;2023-08-07T08:35:08;15.90;99.90
54429;DHT22;40337;52.978;6.310;2023-08-07T08:37:34;16.00;99.90
54429;DHT22;40337;52.978;6.310;2023-08-07T08:40:00;16.10;99.90
54429;DHT22;40337;52.978;6.310;2023-08-07T08:42:26;16.20;99.90
54429;DHT22;40337;52.978;6.310;2023-08-07T08:44:53;16.50;99.90
54429;DHT22;40337;52.978;6.310;2023-08-07T08:47:20;16.40;99.90
54429;DHT22;40337;52.978;6.310;2023-08-07T08:49:48;16.50;99.90
54429;DHT22;40337;52.978;6.310;2023-08-07T08:52:15;16.60;99.90
54429;DHT22;40337;52.978;6.310;2023-08-07T08:54:41;16.90;99.90
54429;DHT22;40337;52.978;6.310;2023-08-07T08:57:07;17.20;99.90
54429;DHT22;40337;52.978;6.310;2023-08-07T08:59:33;17.50;99.90
54429;DHT22;40337;52.978;6.310;2023-08-07T09:01:59;17.80;99.90
54429;DHT22;40337;52.978;6.310;2023-08-07T09:04:25;18.20;99.90
54429;DHT22;40337;52.978;6.310;2023-08-07T09:06:51;18.40;99.90
54429;DHT22;40337;52.978;6.310;2023-08-07T09:09:17;18.40;99.90
54429;DHT22;40337;52.978;6.310;2023-08-07T09:11:45;18.60;99.90
54429;DHT22;40337;52.978;6.310;2023-08-07T09:14:16;18.60;99.90
54429;DHT22;40337;52.978;6.310;2023-08-07T09:16:44;18.60;99.90
54429;DHT22;40337;52.978;6.310;2023-08-07T09:19:11;18.60;99.90
54429;DHT22;40337;52.978;6.310;2023-08-07T09:21:37;18.70;99.90
54429;DHT22;40337;52.978;6.310;2023-08-07T09:24:03;19.10;99.90
54429;DHT22;40337;52.978;6.310;2023-08-07T09:26:28;19.20;99.90
54429;DHT22;40337;52.978;6.310;2023-08-07T09:28:54;19.20;99.90
54429;DHT22;40337;52.978;6.310;2023-08-07T09:31:21;19.20;99.90
54429;DHT22;40337;52.978;6.310;2023-08-07T09:33:47;19.30;99.90
54429;DHT22;40337;52.978;6.310;2023-08-07T09:36:14;19.50;99.90
54429;DHT22;40337;52.978;6.310;2023-08-07T09:38:39;19.80;99.90
54429;DHT22;40337;52.978;6.310;2023-08-07T09:41:05;20.10;99.90
54429;DHT22;40337;52.978;6.310;2023-08-07T09:43:35;19.80;99.90
54429;DHT22;40337;52.978;6.310;2023-08-07T09:46:05;19.30;99.90
54429;DHT22;40337;52.978;6.310;2023-08-07T09:48:31;18.90;99.90
54429;DHT22;40337;52.978;6.310;2023-08-07T09:51:02;18.60;99.90
54429;DHT22;40337;52.978;6.310;2023-08-07T09:53:30;18.50;99.90
54429;DHT22;40337;52.978;6.310;2023-08-07T09:55:55;18.50;99.90
54429;DHT22;40337;52.978;6.310;2023-08-07T09:58:21;18.80;99.90
54429;DHT22;40337;52.978;6.310;2023-08-07T10:00:47;19.10;99.90
54429;DHT22;40337;52.978;6.310;2023-08-07T10:03:14;19.40;99.90
54429;DHT22;40337;52.978;6.310;2023-08-07T10:05:41;19.80;99.90
54429;DHT22;40337;52.978;6.310;2023-08-07T10:08:07;20.10;99.90
54429;DHT22;40337;52.978;6.310;2023-08-07T10:10:33;20.10;99.90
54429;DHT22;40337;52.978;6.310;2023-08-07T10:13:00;19.80;99.90
54429;DHT22;40337;52.978;6.310;2023-08-07T10:15:27;19.30;99.90
54429;DHT22;40337;52.978;6.310;2023-08-07T10:17:53;19.00;99.90
54429;DHT22;40337;52.978;6.310;2023-08-07T10:20:19;18.60;99.90
54429;DHT22;40337;52.978;6.310;2023-08-07T10:22:46;18.40;99.90
54429;DHT22;40337;52.978;6.310;2023-08-07T10:25:12;18.40;99.90
54429;DHT22;40337;52.978;6.310;2023-08-07T10:27:40;19.00;99.90
54429;DHT22;40337;52.978;6.310;2023-08-07T10:30:11;19.30;99.90
54429;DHT22;40337;52.978;6.310;2023-08-07T10:32:39;19.20;99.90
54429;DHT22;40337;52.978;6.310;2023-08-07T10:35:05;18.90;99.90
54429;DHT22;40337;52.978;6.310;2023-08-07T10:37:43;18.70;99.90
54429;DHT22;40337;52.978;6.310;2023-08-07T10:40:11;18.30;99.90
54429;DHT22;40337;52.978;6.310;2023-08-07T10:43:11;18.10;99.90
54429;DHT22;40337;52.978;6.310;2023-08-07T10:45:37;17.90;99.90
54429;DHT22;40337;52.978;6.310;2023-08-07T10:50:55;17.70;99.90
54429;DHT22;40337;52.978;6.310;2023-08-07T10:56:04;18.20;99.90
54429;DHT22;40337;52.978;6.310;2023-08-07T10:58:36;18.40;99.90
54429;DHT22;40337;52.978;6.310;2023-08-07T11:06:25;19.00;99.90
54429;DHT22;40337;52.978;6.310;2023-08-07T11:08:56;18.80;99.90
54429;DHT22;40337;52.978;6.310;2023-08-07T11:11:22;18.60;99.90
54429;DHT22;40337;52.978;6.310;2023-08-07T11:13:47;19.00;99.90
54429;DHT22;40337;52.978;6.310;2023-08-07T11:16:13;19.30;99.90
54429;DHT22;40337;52.978;6.310;2023-08-07T11:18:39;19.30;99.90
54429;DHT22;40337;52.978;6.310;2023-08-07T11:21:08;19.20;99.90
54429;DHT22;40337;52.978;6.310;2023-08-07T11:23:34;19.10;99.90
54429;DHT22;40337;52.978;6.310;2023-08-07T11:26:01;19.10;99.90
54429;DHT22;40337;52.978;6.310;2023-08-07T11:28:28;19.30;99.90
54429;DHT22;40337;52.978;6.310;2023-08-07T11:30:53;19.30;99.90
54429;DHT22;40337;52.978;6.310;2023-08-07T11:33:25;19.20;99.90
54429;DHT22;40337;52.978;6.310;2023-08-07T11:35:51;19.00;99.90
54429;DHT22;40337;52.978;6.310;2023-08-07T11:38:55;19.20;99.90
54429;DHT22;40337;52.978;6.310;2023-08-07T11:41:21;19.30;99.90
54429;DHT22;40337;52.978;6.310;2023-08-07T11:43:47;19.20;99.90
54429;DHT22;40337;52.978;6.310;2023-08-07T11:46:15;19.10;99.90
54429;DHT22;40337;52.978;6.310;2023-08-07T11:48:42;19.10;99.90
54429;DHT22;40337;52.978;6.310;2023-08-07T11:51:08;19.30;99.90
54429;DHT22;40337;52.978;6.310;2023-08-07T11:53:36;19.20;99.90
54429;DHT22;40337;52.978;6.310;2023-08-07T11:56:05;19.20;99.90
54429;DHT22;40337;52.978;6.310;2023-08-07T11:58:39;19.40;99.90
54429;DHT22;40337;52.978;6.310;2023-08-07T12:01:09;19.60;99.90
54429;DHT22;40337;52.978;6.310;2023-08-07T12:03:36;19.50;99.90
54429;DHT22;40337;52.978;6.310;2023-08-07T12:06:05;19.40;99.90
54429;DHT22;40337;52.978;6.310;2023-08-07T12:08:34;19.00;99.90
54429;DHT22;40337;52.978;6.310;2023-08-07T12:11:07;18.70;99.90
54429;DHT22;40337;52.978;6.310;2023-08-07T12:13:40;18.50;99.90
54429;DHT22;40337;52.978;6.310;2023-08-07T12:16:06;18.40;99.90
54429;DHT22;40337;52.978;6.310;2023-08-07T12:18:34;18.30;99.90
54429;DHT22;40337;52.978;6.310;2023-08-07T12:21:05;18.30;99.90
54429;DHT22;40337;52.978;6.310;2023-08-07T12:23:36;18.10;99.90
54429;DHT22;40337;52.978;6.310;2023-08-07T12:26:02;18.00;99.90
54429;DHT22;40337;52.978;6.310;2023-08-07T12:28:28;18.20;99.90
54429;DHT22;40337;52.978;6.310;2023-08-07T12:30:54;18.20;99.90
54429;DHT22;40337;52.978;6.310;2023-08-07T12:33:20;18.60;99.90
54429;DHT22;40337;52.978;6.310;2023-08-07T12:35:45;18.80;99.90
54429;DHT22;40337;52.978;6.310;2023-08-07T12:38:11;18.80;99.90
54429;DHT22;40337;52.978;6.310;2023-08-07T12:40:39;18.60;99.90
54429;DHT22;40337;52.978;6.310;2023-08-07T12:43:05;18.50;99.90
54429;DHT22;40337;52.978;6.310;2023-08-07T12:45:32;18.20;99.90
54429;DHT22;40337;52.978;6.310;2023-08-07T12:47:58;18.00;99.90
54429;DHT22;40337;52.978;6.310;2023-08-07T12:50:24;17.80;99.90
54429;DHT22;40337;52.978;6.310;2023-08-07T12:52:50;17.70;99.90
54429;DHT22;40337;52.978;6.310;2023-08-07T12:55:16;18.00;99.90
54429;DHT22;40337;52.978;6.310;2023-08-07T12:57:43;18.30;99.90
54429;DHT22;40337;52.978;6.310;2023-08-07T13:00:10;18.70;99.90
54429;DHT22;40337;52.978;6.310;2023-08-07T13:02:40;19.00;99.90
54429;DHT22;40337;52.978;6.310;2023-08-07T13:05:05;19.20;99.90
54429;DHT22;40337;52.978;6.310;2023-08-07T13:07:31;19.10;99.90
54429;DHT22;40337;52.978;6.310;2023-08-07T13:09:56;19.10;99.90
54429;DHT22;40337;52.978;6.310;2023-08-07T13:12:22;19.00;99.90
54429;DHT22;40337;52.978;6.310;2023-08-07T13:14:48;18.90;99.90
54429;DHT22;40337;52.978;6.310;2023-08-07T13:17:14;18.90;99.90
54429;DHT22;40337;52.978;6.310;2023-08-07T13:19:39;18.70;99.90
54429;DHT22;40337;52.978;6.310;2023-08-07T13:22:05;18.60;99.90
54429;DHT22;40337;52.978;6.310;2023-08-07T13:24:30;18.50;99.90
54429;DHT22;40337;52.978;6.310;2023-08-07T13:26:56;18.70;99.90
54429;DHT22;40337;52.978;6.310;2023-08-07T13:29:22;18.80;99.90
54429;DHT22;40337;52.978;6.310;2023-08-07T13:31:48;18.70;99.90
54429;DHT22;40337;52.978;6.310;2023-08-07T13:34:13;18.70;99.90
54429;DHT22;40337;52.978;6.310;2023-08-07T13:36:39;18.50;99.90
54429;DHT22;40337;52.978;6.310;2023-08-07T13:39:05;18.50;99.90
54429;DHT22;40337;52.978;6.310;2023-08-07T13:41:31;18.60;99.90
54429;DHT22;40337;52.978;6.310;2023-08-07T13:43:58;18.60;99.90
54429;DHT22;40337;52.978;6.310;2023-08-07T13:46:23;18.60;99.90
54429;DHT22;40337;52.978;6.310;2023-08-07T13:48:50;18.50;99.90
54429;DHT22;40337;52.978;6.310;2023-08-07T13:51:15;18.40;99.90
54429;DHT22;40337;52.978;6.310;2023-08-07T13:53:41;18.30;99.90
54429;DHT22;40337;52.978;6.310;2023-08-07T13:56:07;18.20;99.90
54429;DHT22;40337;52.978;6.310;2023-08-07T13:58:34;18.20;99.90
54429;DHT22;40337;52.978;6.310;2023-08-07T14:01:00;18.50;99.90
54429;DHT22;40337;52.978;6.310;2023-08-07T14:03:25;18.80;99.90
54429;DHT22;40337;52.978;6.310;2023-08-07T14:05:51;19.00;99.90
54429;DHT22;40337;52.978;6.310;2023-08-07T14:08:17;19.00;99.90
54429;DHT22;40337;52.978;6.310;2023-08-07T14:10:42;18.90;99.90
54429;DHT22;40337;52.978;6.310;2023-08-07T14:13:09;18.80;99.90
54429;DHT22;40337;52.978;6.310;2023-08-07T14:15:35;19.00;99.90
54429;DHT22;40337;52.978;6.310;2023-08-07T14:18:01;19.30;99.90
54429;DHT22;40337;52.978;6.310;2023-08-07T14:20:27;19.40;99.90
54429;DHT22;40337;52.978;6.310;2023-08-07T14:22:53;19.40;99.90
54429;DHT22;40337;52.978;6.310;2023-08-07T14:25:19;19.20;99.90
54429;DHT22;40337;52.978;6.310;2023-08-07T14:27:46;19.30;99.90
54429;DHT22;40337;52.978;6.310;2023-08-07T14:30:12;19.30;99.90
54429;DHT22;40337;52.978;6.310;2023-08-07T14:32:38;19.30;99.90
54429;DHT22;40337;52.978;6.310;2023-08-07T14:35:04;19.40;99.90
54429;DHT22;40337;52.978;6.310;2023-08-07T14:37:30;19.30;99.90
54429;DHT22;40337;52.978;6.310;2023-08-07T14:39:55;19.30;99.90
54429;DHT22;40337;52.978;6.310;2023-08-07T14:42:21;19.30;99.90
54429;DHT22;40337;52.978;6.310;2023-08-07T14:44:46;19.40;99.90
54429;DHT22;40337;52.978;6.310;2023-08-07T14:47:12;19.30;99.90
54429;DHT22;40337;52.978;6.310;2023-08-07T14:49:37;19.20;99.90
54429;DHT22;40337;52.978;6.310;2023-08-07T14:52:03;19.00;99.90
54429;DHT22;40337;52.978;6.310;2023-08-07T14:54:29;19.10;99.90
54429;DHT22;40337;52.978;6.310;2023-08-07T14:56:54;19.00;99.90
54429;DHT22;40337;52.978;6.310;2023-08-07T14:59:20;18.80;99.90
54429;DHT22;40337;52.978;6.310;2023-08-07T15:01:45;18.80;99.90
54429;DHT22;40337;52.978;6.310;2023-08-07T15:04:11;18.70;99.90
54429;DHT22;40337;52.978;6.310;2023-08-07T15:06:37;18.60;99.90
54429;DHT22;40337;52.978;6.310;2023-08-07T15:09:02;18.70;99.90
54429;DHT22;40337;52.978;6.310;2023-08-07T15:11:28;18.80;99.90
54429;DHT22;40337;52.978;6.310;2023-08-07T15:13:54;18.80;99.90
54429;DHT22;40337;52.978;6.310;2023-08-07T15:16:19;18.50;99.90
54429;DHT22;40337;52.978;6.310;2023-08-07T15:18:45;18.40;99.90
54429;DHT22;40337;52.978;6.310;2023-08-07T15:21:10;18.10;99.90
54429;DHT22;40337;52.978;6.310;2023-08-07T15:23:36;18.00;99.90
54429;DHT22;40337;52.978;6.310;2023-08-07T15:26:02;18.00;99.90
54429;DHT22;40337;52.978;6.310;2023-08-07T15:28:28;17.90;99.90
54429;DHT22;40337;52.978;6.310;2023-08-07T15:30:54;17.90;99.90
54429;DHT22;40337;52.978;6.310;2023-08-07T15:33:19;17.90;99.90
54429;DHT22;40337;52.978;6.310;2023-08-07T15:35:45;18.00;99.90
54429;DHT22;40337;52.978;6.310;2023-08-07T15:38:11;17.90;99.90